sensor_id;sensor_type;location;lat;lon;timestamp;temperature;humidity
63960;DHT22;50136;51.374;0.096;2023-04-26T00:05:23;6.10;99.90
63960;DHT22;50136;51.374;0.096;2023-04-26T00:15:26;5.90;99.90
63960;DHT22;50136;51.374;0.096;2023-04-26T00:25:28;5.80;99.90
63960;DHT22;50136;51.374;0.096;2023-04-26T00:35:31;5.80;99.90
63960;DHT22;50136;51.374;0.096;2023-04-26T00:45:34;5.60;99.90
63960;DHT22;50136;51.374;0.096;2023-04-26T00:55:37;5.30;99.90
63960;DHT22;50136;51.374;0.096;2023-04-26T01:05:39;5.20;99.90
63960;DHT22;50136;51.374;0.096;2023-04-26T01:15:44;5.20;99.90
63960;DHT22;50136;51.374;0.096;2023-04-26T01:25:48;5.10;99.90
63960;DHT22;50136;51.374;0.096;2023-04-26T01:35:50;5.20;99.90
63960;DHT22;50136;51.374;0.096;2023-04-26T01:45:53;5.20;99.90
63960;DHT22;50136;51.374;0.096;2023-04-26T01:55:55;5.10;99.90
63960;DHT22;50136;51.374;0.096;2023-04-26T02:05:58;5.10;99.90
63960;DHT22;50136;51.374;0.096;2023-04-26T02:16:00;5.00;99.90
63960;DHT22;50136;51.374;0.096;2023-04-26T02:26:04;5.00;99.90
63960;DHT22;50136;51.374;0.096;2023-04-26T02:36:06;5.00;99.90
63960;DHT22;50136;51.374;0.096;2023-04-26T02:46:10;5.10;99.90
63960;DHT22;50136;51.374;0.096;2023-04-26T02:56:12;5.20;99.90
63960;DHT22;50136;51.374;0.096;2023-04-26T03:06:15;5.20;99.90
63960;DHT22;50136;51.374;0.096;2023-04-26T03:16:18;5.30;99.90
63960;DHT22;50136;51.374;0.096;2023-04-26T03:26:21;5.30;99.90
63960;DHT22;50136;51.374;0.096;2023-04-26T03:36:23;5.40;99.90
63960;DHT22;50136;51.374;0.096;2023-04-26T03:46:27;5.40;99.90
63960;DHT22;50136;51.374;0.096;2023-04-26T03:56:29;5.50;99.90
63960;DHT22;50136;51.374;0.096;2023-04-26T04:06:32;5.60;99.90
63960;DHT22;50136;51.374;0.096;2023-04-26T04:16:34;5.70;99.90
63960;DHT22;50136;51.374;0.096;2023-04-26T04:26:38;5.70;99.90
63960;DHT22;50136;51.374;0.096;2023-04-26T04:36:40;5.80;99.90
63960;DHT22;50136;51.374;0.096;2023-04-26T04:46:43;5.70;99.90
63960;DHT22;50136;51.374;0.096;2023-04-26T04:56:45;5.80;99.90
63960;DHT22;50136;51.374;0.096;2023-04-26T05:06:48;5.90;99.90
63960;DHT22;50136;51.374;0.096;2023-04-26T05:16:50;5.90;99.90
63960;DHT22;50136;51.374;0.096;2023-04-26T05:26:54;6.00;99.90
63960;DHT22;50136;51.374;0.096;2023-04-26T05:36:56;6.10;99.90
63960;DHT22;50136;51.374;0.096;2023-04-26T05:46:59;6.20;99.90
63960;DHT22;50136;51.374;0.096;2023-04-26T05:57:01;6.50;99.90
63960;DHT22;50136;51.374;0.096;2023-04-26T06:07:04;6.60;99.90
63960;DHT22;50136;51.374;0.096;2023-04-26T06:17:06;6.60;99.90
63960;DHT22;50136;51.374;0.096;2023-04-26T06:27:10;6.70;99.90
63960;DHT22;50136;51.374;0.096;2023-04-26T06:37:12;7.00;99.90
63960;DHT22;50136;51.374;0.096;2023-04-26T06:47:15;7.10;99.90
63960;DHT22;50136;51.374;0.096;2023-04-26T06:57:17;7.20;99.90
63960;DHT22;50136;51.374;0.096;2023-04-26T07:07:21;7.40;99.90
63960;DHT22;50136;51.374;0.096;2023-04-26T07:17:23;7.60;99.90
63960;DHT22;50136;51.374;0.096;2023-04-26T07:27:26;7.70;99.90
63960;DHT22;50136;51.374;0.096;2023-04-26T07:37:28;7.70;99.90
63960;DHT22;50136;51.374;0.096;2023-04-26T07:47:31;7.80;99.90
63960;DHT22;50136;51.374;0.096;2023-04-26T07:57:33;8.00;99.90
63960;DHT22;50136;51.374;0.096;2023-04-26T08:07:37;8.30;99.90
63960;DHT22;50136;51.374;0.096;2023-04-26T08:17:39;8.20;99.90
63960;DHT22;50136;51.374;0.096;2023-04-26T08:27:42;8.30;99.90
63960;DHT22;50136;51.374;0.096;2023-04-26T08:37:44;8.50;99.90
63960;DHT22;50136;51.374;0.096;2023-04-26T08:47:49;8.20;99.90
63960;DHT22;50136;51.374;0.096;2023-04-26T08:57:51;8.30;99.90
63960;DHT22;50136;51.374;0.096;2023-04-26T09:07:56;8.30;99.90
63960;DHT22;50136;51.374;0.096;2023-04-26T09:18:15;8.20;99.90
63960;DHT22;50136;51.374;0.096;2023-04-26T09:28:22;8.40;99.90
63960;DHT22;50136;51.374;0.096;2023-04-26T09:38:25;8.40;99.90
63960;DHT22;50136;51.374;0.096;2023-04-26T09:48:29;8.50;99.90
63960;DHT22;50136;51.374;0.096;2023-04-26T10:09:42;9.50;99.90
63960;DHT22;50136;51.374;0.096;2023-04-26T10:19:46;9.80;99.90
63960;DHT22;50136;51.374;0.096;2023-04-26T10:30:08;10.30;99.90
63960;DHT22;50136;51.374;0.096;2023-04-26T10:40:24;10.90;99.10
63960;DHT22;50136;51.374;0.096;2023-04-26T10:50:28;11.10;98.40
63960;DHT22;50136;51.374;0.096;2023-04-26T11:00:31;11.30;97.20
63960;DHT22;50136;51.374;0.096;2023-04-26T11:10:37;11.40;94.30
63960;DHT22;50136;51.374;0.096;2023-04-26T11:20:39;10.70;95.50
63960;DHT22;50136;51.374;0.096;2023-04-26T11:30:42;10.80;95.50
63960;DHT22;50136;51.374;0.096;2023-04-26T11:40:52;10.90;95.40
63960;DHT22;50136;51.374;0.096;2023-04-26T11:51:07;11.00;94.30
63960;DHT22;50136;51.374;0.096;2023-04-26T12:01:09;11.10;94.40
63960;DHT22;50136;51.374;0.096;2023-04-26T12:11:15;11.00;94.00
63960;DHT22;50136;51.374;0.096;2023-04-26T12:21:17;10.90;94.20
63960;DHT22;50136;51.374;0.096;2023-04-26T12:31:21;11.10;95.10
63960;DHT22;50136;51.374;0.096;2023-04-26T12:41:23;11.30;95.40
63960;DHT22;50136;51.374;0.096;2023-04-26T12:51:27;11.50;95.00
63960;DHT22;50136;51.374;0.096;2023-04-26T13:01:29;11.70;94.70
63960;DHT22;50136;51.374;0.096;2023-04-26T13:11:32;12.20;94.60
63960;DHT22;50136;51.374;0.096;2023-04-26T13:21:35;12.50;95.10
63960;DHT22;50136;51.374;0.096;2023-04-26T13:31:39;12.50;94.10
63960;DHT22;50136;51.374;0.096;2023-04-26T13:41:42;12.40;94.80
63960;DHT22;50136;51.374;0.096;2023-04-26T13:51:45;12.30;95.30
63960;DHT22;50136;51.374;0.096;2023-04-26T14:01:47;12.10;94.90
63960;DHT22;50136;51.374;0.096;2023-04-26T14:11:50;12.90;94.90
63960;DHT22;50136;51.374;0.096;2023-04-26T14:22:08;12.80;94.70
63960;DHT22;50136;51.374;0.096;2023-04-26T14:32:11;13.00;93.90
63960;DHT22;50136;51.374;0.096;2023-04-26T14:42:13;13.50;94.30
63960;DHT22;50136;51.374;0.096;2023-04-26T14:52:17;15.20;92.70
63960;DHT22;50136;51.374;0.096;2023-04-26T15:02:19;14.20;92.80
63960;DHT22;50136;51.374;0.096;2023-04-26T15:12:22;13.40;93.70
63960;DHT22;50136;51.374;0.096;2023-04-26T15:22:24;13.00;93.80
63960;DHT22;50136;51.374;0.096;2023-04-26T15:32:27;12.70;94.20
63960;DHT22;50136;51.374;0.096;2023-04-26T15:42:30;12.60;94.70
63960;DHT22;50136;51.374;0.096;2023-04-26T15:52:34;12.60;95.00
63960;DHT22;50136;51.374;0.096;2023-04-26T16:02:39;12.40;95.60
63960;DHT22;50136;51.374;0.096;2023-04-26T16:12:43;12.30;95.30
63960;DHT22;50136;51.374;0.096;2023-04-26T16:22:45;12.40;95.70
63960;DHT22;50136;51.374;0.096;2023-04-26T16:32:48;12.00;95.90
63960;DHT22;50136;51.374;0.096;2023-04-26T16:42:50;11.80;96.00
63960;DHT22;50136;51.374;0.096;2023-04-26T16:52:54;12.00;96.40
63960;DHT22;50136;51.374;0.096;2023-04-26T17:02:55;12.10;96.60
63960;DHT22;50136;51.374;0.096;2023-04-26T17:12:59;12.20;96.30
63960;DHT22;50136;51.374;0.096;2023-04-26T17:23:02;12.20;96.70
63960;DHT22;50136;51.374;0.096;2023-04-26T17:33:06;12.40;96.00
63960;DHT22;50136;51.374;0.096;2023-04-26T17:43:08;12.10;98.10
63960;DHT22;50136;51.374;0.096;2023-04-26T17:53:12;11.80;99.10
63960;DHT22;50136;51.374;0.096;2023-04-26T18:03:13;11.60;99.70
63960;DHT22;50136;51.374;0.096;2023-04-26T18:13:17;11.30;99.90
63960;DHT22;50136;51.374;0.096;2023-04-26T18:23:20;11.10;99.90
63960;DHT22;50136;51.374;0.096;2023-04-26T18:34:15;10.90;99.90
63960;DHT22;50136;51.374;0.096;2023-04-26T18:44:31;10.80;99.90
63960;DHT22;50136;51.374;0.096;2023-04-26T18:54:34;10.70;99.90
63960;DHT22;50136;51.374;0.096;2023-04-26T19:04:36;10.80;99.90
63960;DHT22;50136;51.374;0.096;2023-04-26T19:14:40;10.40;99.90
63960;DHT22;50136;51.374;0.096;2023-04-26T19:24:42;10.40;99.90
63960;DHT22;50136;51.374;0.096;2023-04-26T19:34:46;10.30;99.90
63960;DHT22;50136;51.374;0.096;2023-04-26T19:44:48;10.30;99.90
63960;DHT22;50136;51.374;0.096;2023-04-26T19:54:53;10.30;99.90
63960;DHT22;50136;51.374;0.096;2023-04-26T20:04:55;10.30;99.90
63960;DHT22;50136;51.374;0.096;2023-04-26T20:14:59;10.30;99.90
63960;DHT22;50136;51.374;0.096;2023-04-26T20:25:01;10.20;99.90
63960;DHT22;50136;51.374;0.096;2023-04-26T20:35:08;10.20;99.90
63960;DHT22;50136;51.374;0.096;2023-04-26T20:45:10;9.90;99.90
63960;DHT22;50136;51.374;0.096;2023-04-26T20:55:14;9.90;99.90
63960;DHT22;50136;51.374;0.096;2023-04-26T21:15:34;9.90;99.90
63960;DHT22;50136;51.374;0.096;2023-04-26T21:25:36;9.90;99.90
63960;DHT22;50136;51.374;0.096;2023-04-26T21:35:40;9.80;99.90
63960;DHT22;50136;51.374;0.096;2023-04-26T21:45:42;9.50;99.90
63960;DHT22;50136;51.374;0.096;2023-04-26T21:55:49;9.40;99.90
63960;DHT22;50136;51.374;0.096;2023-04-26T22:05:51;9.30;99.90
63960;DHT22;50136;51.374;0.096;2023-04-26T22:15:54;9.20;99.90
63960;DHT22;50136;51.374;0.096;2023-04-26T22:25:56;9.20;99.90
63960;DHT22;50136;51.374;0.096;2023-04-26T22:36:00;9.00;99.90
63960;DHT22;50136;51.374;0.096;2023-04-26T22:46:02;8.80;99.90
63960;DHT22;50136;51.374;0.096;2023-04-26T22:56:06;8.70;99.90
63960;DHT22;50136;51.374;0.096;2023-04-26T23:06:08;8.60;99.90
63960;DHT22;50136;51.374;0.096;2023-04-26T23:16:12;8.40;99.90
63960;DHT22;50136;51.374;0.096;2023-04-26T23:26:13;8.40;99.90
63960;DHT22;50136;51.374;0.096;2023-04-26T23:36:17;8.20;99.90
63960;DHT22;50136;51.374;0.096;2023-04-26T23:46:19;8.20;99.90
63960;DHT22;50136;51.374;0.096;2023-04-26T23:56:22;8.10;99.90
